sensor_id;sensor_type;location;lat;lon;timestamp;temperature;humidity
23744;DHT22;12052;53.478;10.182;2024-01-15T00:00:06;1.30;99.90
23744;DHT22;12052;53.478;10.182;2024-01-15T00:03:06;1.30;99.90
23744;DHT22;12052;53.478;10.182;2024-01-15T00:05:41;1.20;99.90
23744;DHT22;12052;53.478;10.182;2024-01-15T00:08:09;1.30;99.90
23744;DHT22;12052;53.478;10.182;2024-01-15T00:10:40;1.30;99.90
23744;DHT22;12052;53.478;10.182;2024-01-15T00:13:19;1.30;99.90
23744;DHT22;12052;53.478;10.182;2024-01-15T00:15:54;1.30;99.90
23744;DHT22;12052;53.478;10.182;2024-01-15T00:18:23;1.30;99.90
23744;DHT22;12052;53.478;10.182;2024-01-15T00:20:49;1.40;99.90
23744;DHT22;12052;53.478;10.182;2024-01-15T00:23:16;1.40;99.90
23744;DHT22;12052;53.478;10.182;2024-01-15T00:25:42;1.40;99.90
23744;DHT22;12052;53.478;10.182;2024-01-15T00:28:07;1.40;99.90
23744;DHT22;12052;53.478;10.182;2024-01-15T00:30:36;1.30;99.90
23744;DHT22;12052;53.478;10.182;2024-01-15T00:33:08;1.20;99.90
23744;DHT22;12052;53.478;10.182;2024-01-15T00:35:38;1.20;99.90
23744;DHT22;12052;53.478;10.182;2024-01-15T00:38:03;1.20;99.90
23744;DHT22;12052;53.478;10.182;2024-01-15T00:40:47;1.30;99.90
23744;DHT22;12052;53.478;10.182;2024-01-15T00:43:23;1.30;99.90
23744;DHT22;12052;53.478;10.182;2024-01-15T00:45:48;1.40;99.90
23744;DHT22;12052;53.478;10.182;2024-01-15T00:48:14;1.40;99.90
23744;DHT22;12052;53.478;10.182;2024-01-15T00:50:40;1.40;99.90
23744;DHT22;12052;53.478;10.182;2024-01-15T00:53:06;1.40;99.90
23744;DHT22;12052;53.478;10.182;2024-01-15T00:55:31;1.30;99.90
23744;DHT22;12052;53.478;10.182;2024-01-15T00:57:57;1.40;99.90
23744;DHT22;12052;53.478;10.182;2024-01-15T01:00:22;1.30;99.90
23744;DHT22;12052;53.478;10.182;2024-01-15T01:02:48;1.30;99.90
23744;DHT22;12052;53.478;10.182;2024-01-15T01:05:14;1.30;99.90
23744;DHT22;12052;53.478;10.182;2024-01-15T01:07:40;1.30;99.90
23744;DHT22;12052;53.478;10.182;2024-01-15T01:10:05;1.20;99.90
23744;DHT22;12052;53.478;10.182;2024-01-15T01:12:32;1.30;99.90
23744;DHT22;12052;53.478;10.182;2024-01-15T01:15:01;1.30;99.90
23744;DHT22;12052;53.478;10.182;2024-01-15T01:17:32;1.40;99.90
23744;DHT22;12052;53.478;10.182;2024-01-15T01:20:13;1.40;99.90
23744;DHT22;12052;53.478;10.182;2024-01-15T01:23:33;1.40;99.90
23744;DHT22;12052;53.478;10.182;2024-01-15T01:28:54;1.50;99.90
23744;DHT22;12052;53.478;10.182;2024-01-15T01:31:20;1.60;99.90
23744;DHT22;12052;53.478;10.182;2024-01-15T01:37:07;1.60;99.90
23744;DHT22;12052;53.478;10.182;2024-01-15T01:39:43;1.60;99.90
23744;DHT22;12052;53.478;10.182;2024-01-15T01:42:12;1.70;99.90
23744;DHT22;12052;53.478;10.182;2024-01-15T01:44:39;1.70;99.90
23744;DHT22;12052;53.478;10.182;2024-01-15T01:47:05;1.70;99.90
23744;DHT22;12052;53.478;10.182;2024-01-15T01:49:32;1.80;99.90
23744;DHT22;12052;53.478;10.182;2024-01-15T01:52:00;1.80;99.90
23744;DHT22;12052;53.478;10.182;2024-01-15T01:54:29;1.70;99.90
23744;DHT22;12052;53.478;10.182;2024-01-15T01:56:58;1.70;99.90
23744;DHT22;12052;53.478;10.182;2024-01-15T01:59:34;1.70;99.90
23744;DHT22;12052;53.478;10.182;2024-01-15T02:02:03;1.70;99.90
23744;DHT22;12052;53.478;10.182;2024-01-15T02:04:41;1.60;99.90
23744;DHT22;12052;53.478;10.182;2024-01-15T02:07:22;1.60;99.90
23744;DHT22;12052;53.478;10.182;2024-01-15T02:09:52;1.60;99.90
23744;DHT22;12052;53.478;10.182;2024-01-15T02:12:18;1.60;99.90
23744;DHT22;12052;53.478;10.182;2024-01-15T02:14:43;1.50;99.90
23744;DHT22;12052;53.478;10.182;2024-01-15T02:17:09;1.50;99.90
23744;DHT22;12052;53.478;10.182;2024-01-15T02:19:35;1.50;99.90
23744;DHT22;12052;53.478;10.182;2024-01-15T02:22:01;1.50;99.90
23744;DHT22;12052;53.478;10.182;2024-01-15T02:24:27;1.60;99.90
23744;DHT22;12052;53.478;10.182;2024-01-15T02:26:54;1.60;99.90
23744;DHT22;12052;53.478;10.182;2024-01-15T02:29:20;1.60;99.90
23744;DHT22;12052;53.478;10.182;2024-01-15T02:31:45;1.60;99.90
23744;DHT22;12052;53.478;10.182;2024-01-15T02:34:13;1.60;99.90
23744;DHT22;12052;53.478;10.182;2024-01-15T02:36:41;1.70;99.90
23744;DHT22;12052;53.478;10.182;2024-01-15T02:39:36;1.70;99.90
23744;DHT22;12052;53.478;10.182;2024-01-15T02:42:02;1.60;99.90
23744;DHT22;12052;53.478;10.182;2024-01-15T02:44:40;1.60;99.90
23744;DHT22;12052;53.478;10.182;2024-01-15T02:47:09;1.60;99.90
23744;DHT22;12052;53.478;10.182;2024-01-15T02:49:36;1.70;99.90
23744;DHT22;12052;53.478;10.182;2024-01-15T02:52:02;1.70;99.90
23744;DHT22;12052;53.478;10.182;2024-01-15T02:54:29;1.80;99.90
23744;DHT22;12052;53.478;10.182;2024-01-15T02:56:56;1.90;99.90
23744;DHT22;12052;53.478;10.182;2024-01-15T02:59:28;1.90;99.90
23744;DHT22;12052;53.478;10.182;2024-01-15T03:02:18;1.90;99.90
23744;DHT22;12052;53.478;10.182;2024-01-15T03:04:48;1.90;99.90
23744;DHT22;12052;53.478;10.182;2024-01-15T03:07:14;1.90;99.90
23744;DHT22;12052;53.478;10.182;2024-01-15T03:09:42;1.90;99.90
23744;DHT22;12052;53.478;10.182;2024-01-15T03:12:08;1.90;99.90
23744;DHT22;12052;53.478;10.182;2024-01-15T03:14:34;1.90;99.90
23744;DHT22;12052;53.478;10.182;2024-01-15T03:17:01;1.90;99.90
23744;DHT22;12052;53.478;10.182;2024-01-15T03:19:27;1.80;99.90
23744;DHT22;12052;53.478;10.182;2024-01-15T03:21:52;1.80;99.90
23744;DHT22;12052;53.478;10.182;2024-01-15T03:24:18;1.80;99.90
23744;DHT22;12052;53.478;10.182;2024-01-15T03:26:45;1.70;99.90
23744;DHT22;12052;53.478;10.182;2024-01-15T03:29:13;1.70;99.90
23744;DHT22;12052;53.478;10.182;2024-01-15T03:31:40;1.60;99.90
23744;DHT22;12052;53.478;10.182;2024-01-15T03:34:16;1.60;99.90
23744;DHT22;12052;53.478;10.182;2024-01-15T03:36:43;1.50;99.90
23744;DHT22;12052;53.478;10.182;2024-01-15T03:39:09;1.40;99.90
23744;DHT22;12052;53.478;10.182;2024-01-15T03:41:38;1.40;99.90
23744;DHT22;12052;53.478;10.182;2024-01-15T03:44:04;1.40;99.90
23744;DHT22;12052;53.478;10.182;2024-01-15T03:46:30;1.50;99.90
23744;DHT22;12052;53.478;10.182;2024-01-15T03:48:56;1.50;99.90
23744;DHT22;12052;53.478;10.182;2024-01-15T03:51:22;1.50;99.90
23744;DHT22;12052;53.478;10.182;2024-01-15T03:53:48;1.50;99.90
23744;DHT22;12052;53.478;10.182;2024-01-15T03:56:14;1.50;99.90
23744;DHT22;12052;53.478;10.182;2024-01-15T03:58:40;1.50;99.90
23744;DHT22;12052;53.478;10.182;2024-01-15T04:01:12;1.50;99.90
23744;DHT22;12052;53.478;10.182;2024-01-15T04:03:37;1.50;99.90
23744;DHT22;12052;53.478;10.182;2024-01-15T04:06:04;1.40;99.90
23744;DHT22;12052;53.478;10.182;2024-01-15T04:08:30;1.50;99.90
23744;DHT22;12052;53.478;10.182;2024-01-15T04:10:56;1.50;99.90
23744;DHT22;12052;53.478;10.182;2024-01-15T04:13:22;1.50;99.90
23744;DHT22;12052;53.478;10.182;2024-01-15T04:15:48;1.50;99.90
23744;DHT22;12052;53.478;10.182;2024-01-15T04:18:16;1.50;99.90
23744;DHT22;12052;53.478;10.182;2024-01-15T04:20:45;1.50;99.90
23744;DHT22;12052;53.478;10.182;2024-01-15T04:23:10;1.50;99.90
23744;DHT22;12052;53.478;10.182;2024-01-15T04:25:36;1.50;99.90
23744;DHT22;12052;53.478;10.182;2024-01-15T04:28:02;1.50;99.90
23744;DHT22;12052;53.478;10.182;2024-01-15T04:30:28;1.50;99.90
23744;DHT22;12052;53.478;10.182;2024-01-15T04:32:54;1.50;99.90
23744;DHT22;12052;53.478;10.182;2024-01-15T04:35:20;1.60;99.90
23744;DHT22;12052;53.478;10.182;2024-01-15T04:37:46;1.60;99.90
23744;DHT22;12052;53.478;10.182;2024-01-15T04:40:14;1.50;99.90
23744;DHT22;12052;53.478;10.182;2024-01-15T04:42:40;1.50;99.90
23744;DHT22;12052;53.478;10.182;2024-01-15T04:45:05;1.50;99.90
23744;DHT22;12052;53.478;10.182;2024-01-15T04:47:31;1.50;99.90
23744;DHT22;12052;53.478;10.182;2024-01-15T04:49:57;1.40;99.90
23744;DHT22;12052;53.478;10.182;2024-01-15T04:52:23;1.40;99.90
23744;DHT22;12052;53.478;10.182;2024-01-15T04:54:49;1.40;99.90
23744;DHT22;12052;53.478;10.182;2024-01-15T04:57:20;1.40;99.90
23744;DHT22;12052;53.478;10.182;2024-01-15T04:59:50;1.40;99.90
23744;DHT22;12052;53.478;10.182;2024-01-15T05:02:18;1.50;99.90
23744;DHT22;12052;53.478;10.182;2024-01-15T05:04:45;1.40;99.90
23744;DHT22;12052;53.478;10.182;2024-01-15T05:07:12;1.40;99.90
23744;DHT22;12052;53.478;10.182;2024-01-15T05:09:38;1.40;99.90
23744;DHT22;12052;53.478;10.182;2024-01-15T05:12:04;1.50;99.90
23744;DHT22;12052;53.478;10.182;2024-01-15T05:14:30;1.50;99.90
23744;DHT22;12052;53.478;10.182;2024-01-15T05:16:58;1.50;99.90
23744;DHT22;12052;53.478;10.182;2024-01-15T05:19:23;1.50;99.90
23744;DHT22;12052;53.478;10.182;2024-01-15T05:21:49;1.40;99.90
23744;DHT22;12052;53.478;10.182;2024-01-15T05:24:15;1.40;99.90
23744;DHT22;12052;53.478;10.182;2024-01-15T05:26:41;1.40;99.90
23744;DHT22;12052;53.478;10.182;2024-01-15T05:29:06;1.40;99.90
23744;DHT22;12052;53.478;10.182;2024-01-15T05:31:32;1.50;99.90
23744;DHT22;12052;53.478;10.182;2024-01-15T05:33:58;1.50;99.90
23744;DHT22;12052;53.478;10.182;2024-01-15T05:36:24;1.50;99.90
23744;DHT22;12052;53.478;10.182;2024-01-15T05:38:49;1.50;99.90
23744;DHT22;12052;53.478;10.182;2024-01-15T05:41:15;1.50;99.90
23744;DHT22;12052;53.478;10.182;2024-01-15T05:43:41;1.50;99.90
23744;DHT22;12052;53.478;10.182;2024-01-15T05:46:07;1.50;99.90
23744;DHT22;12052;53.478;10.182;2024-01-15T05:48:33;1.60;99.90
23744;DHT22;12052;53.478;10.182;2024-01-15T05:50:59;1.60;99.90
23744;DHT22;12052;53.478;10.182;2024-01-15T05:53:26;1.60;99.90
23744;DHT22;12052;53.478;10.182;2024-01-15T05:55:52;1.60;99.90
23744;DHT22;12052;53.478;10.182;2024-01-15T05:58:18;1.70;99.90
23744;DHT22;12052;53.478;10.182;2024-01-15T06:00:44;1.70;99.90
23744;DHT22;12052;53.478;10.182;2024-01-15T06:03:11;1.80;99.90
23744;DHT22;12052;53.478;10.182;2024-01-15T06:05:37;1.80;99.90
23744;DHT22;12052;53.478;10.182;2024-01-15T06:08:03;1.80;99.90
23744;DHT22;12052;53.478;10.182;2024-01-15T06:10:29;1.80;99.90
23744;DHT22;12052;53.478;10.182;2024-01-15T06:12:54;1.80;99.90
23744;DHT22;12052;53.478;10.182;2024-01-15T06:15:20;1.80;99.90
23744;DHT22;12052;53.478;10.182;2024-01-15T06:17:58;1.80;99.90
23744;DHT22;12052;53.478;10.182;2024-01-15T06:20:52;1.80;99.90
23744;DHT22;12052;53.478;10.182;2024-01-15T06:23:32;1.80;99.90
23744;DHT22;12052;53.478;10.182;2024-01-15T06:26:30;1.80;99.90
23744;DHT22;12052;53.478;10.182;2024-01-15T06:29:08;1.80;99.90
23744;DHT22;12052;53.478;10.182;2024-01-15T06:31:45;1.80;99.90
23744;DHT22;12052;53.478;10.182;2024-01-15T06:34:44;1.80;99.90
23744;DHT22;12052;53.478;10.182;2024-01-15T06:37:23;1.80;99.90
23744;DHT22;12052;53.478;10.182;2024-01-15T06:39:49;1.80;99.90
23744;DHT22;12052;53.478;10.182;2024-01-15T06:42:15;1.80;99.90
23744;DHT22;12052;53.478;10.182;2024-01-15T06:44:40;1.80;99.90
23744;DHT22;12052;53.478;10.182;2024-01-15T06:47:06;1.90;99.90
23744;DHT22;12052;53.478;10.182;2024-01-15T06:49:31;1.90;99.90
23744;DHT22;12052;53.478;10.182;2024-01-15T06:51:57;1.90;99.90
23744;DHT22;12052;53.478;10.182;2024-01-15T06:54:22;1.90;99.90
23744;DHT22;12052;53.478;10.182;2024-01-15T06:56:49;1.80;99.90
23744;DHT22;12052;53.478;10.182;2024-01-15T06:59:15;1.80;99.90
23744;DHT22;12052;53.478;10.182;2024-01-15T07:01:41;1.80;99.90
23744;DHT22;12052;53.478;10.182;2024-01-15T07:04:06;1.80;99.90
23744;DHT22;12052;53.478;10.182;2024-01-15T07:06:32;1.80;99.90
23744;DHT22;12052;53.478;10.182;2024-01-15T07:08:57;1.70;99.90
23744;DHT22;12052;53.478;10.182;2024-01-15T07:11:23;1.70;99.90
23744;DHT22;12052;53.478;10.182;2024-01-15T07:13:49;1.70;99.90
23744;DHT22;12052;53.478;10.182;2024-01-15T07:16:14;1.70;99.90
23744;DHT22;12052;53.478;10.182;2024-01-15T07:18:40;1.70;99.90
23744;DHT22;12052;53.478;10.182;2024-01-15T07:21:06;1.60;99.90
23744;DHT22;12052;53.478;10.182;2024-01-15T07:23:32;1.60;99.90
23744;DHT22;12052;53.478;10.182;2024-01-15T07:25:57;1.60;99.90
23744;DHT22;12052;53.478;10.182;2024-01-15T07:28:23;1.60;99.90
23744;DHT22;12052;53.478;10.182;2024-01-15T07:30:48;1.60;99.90
23744;DHT22;12052;53.478;10.182;2024-01-15T07:33:14;1.70;99.90
23744;DHT22;12052;53.478;10.182;2024-01-15T07:35:40;1.70;99.90
23744;DHT22;12052;53.478;10.182;2024-01-15T07:38:05;1.70;99.90
23744;DHT22;12052;53.478;10.182;2024-01-15T07:40:31;1.70;99.90
23744;DHT22;12052;53.478;10.182;2024-01-15T07:42:56;1.70;99.90
23744;DHT22;12052;53.478;10.182;2024-01-15T07:45:22;1.70;99.90
23744;DHT22;12052;53.478;10.182;2024-01-15T07:47:48;1.70;99.90
23744;DHT22;12052;53.478;10.182;2024-01-15T07:50:14;1.80;99.90
23744;DHT22;12052;53.478;10.182;2024-01-15T07:52:40;1.80;99.90
23744;DHT22;12052;53.478;10.182;2024-01-15T07:55:08;1.80;99.90
23744;DHT22;12052;53.478;10.182;2024-01-15T07:57:34;1.80;99.90
23744;DHT22;12052;53.478;10.182;2024-01-15T08:00:01;1.80;99.90
23744;DHT22;12052;53.478;10.182;2024-01-15T08:02:27;1.80;99.90
23744;DHT22;12052;53.478;10.182;2024-01-15T08:04:53;1.80;99.90
23744;DHT22;12052;53.478;10.182;2024-01-15T08:07:18;1.80;99.90
23744;DHT22;12052;53.478;10.182;2024-01-15T08:09:44;1.80;99.90
23744;DHT22;12052;53.478;10.182;2024-01-15T08:12:09;1.80;99.90
23744;DHT22;12052;53.478;10.182;2024-01-15T08:14:35;1.80;99.90
23744;DHT22;12052;53.478;10.182;2024-01-15T08:17:01;1.80;99.90
23744;DHT22;12052;53.478;10.182;2024-01-15T08:19:27;1.80;99.90
23744;DHT22;12052;53.478;10.182;2024-01-15T08:21:52;1.80;99.90
23744;DHT22;12052;53.478;10.182;2024-01-15T08:24:18;1.80;99.90
23744;DHT22;12052;53.478;10.182;2024-01-15T08:26:44;1.80;99.90
23744;DHT22;12052;53.478;10.182;2024-01-15T08:29:10;1.80;99.90
23744;DHT22;12052;53.478;10.182;2024-01-15T08:31:36;1.80;99.90
23744;DHT22;12052;53.478;10.182;2024-01-15T08:34:01;1.90;99.90
23744;DHT22;12052;53.478;10.182;2024-01-15T08:36:27;1.90;99.90
23744;DHT22;12052;53.478;10.182;2024-01-15T08:38:55;1.90;99.90
23744;DHT22;12052;53.478;10.182;2024-01-15T08:41:20;1.90;99.90
23744;DHT22;12052;53.478;10.182;2024-01-15T08:43:46;1.90;99.90
23744;DHT22;12052;53.478;10.182;2024-01-15T08:46:11;1.80;99.90
23744;DHT22;12052;53.478;10.182;2024-01-15T08:48:37;1.90;99.90
23744;DHT22;12052;53.478;10.182;2024-01-15T08:51:03;1.80;99.90
23744;DHT22;12052;53.478;10.182;2024-01-15T08:53:28;1.80;99.90
23744;DHT22;12052;53.478;10.182;2024-01-15T08:55:54;1.80;99.90
23744;DHT22;12052;53.478;10.182;2024-01-15T08:58:20;1.80;99.90
23744;DHT22;12052;53.478;10.182;2024-01-15T09:00:45;1.80;99.90
23744;DHT22;12052;53.478;10.182;2024-01-15T09:03:11;1.80;99.90
23744;DHT22;12052;53.478;10.182;2024-01-15T09:05:37;1.80;99.90
23744;DHT22;12052;53.478;10.182;2024-01-15T09:08:03;1.80;99.90
23744;DHT22;12052;53.478;10.182;2024-01-15T09:10:29;1.80;99.90
23744;DHT22;12052;53.478;10.182;2024-01-15T09:12:54;1.80;99.90
23744;DHT22;12052;53.478;10.182;2024-01-15T09:15:20;1.70;99.90
23744;DHT22;12052;53.478;10.182;2024-01-15T09:17:45;1.70;99.90
23744;DHT22;12052;53.478;10.182;2024-01-15T09:20:12;1.70;99.90
23744;DHT22;12052;53.478;10.182;2024-01-15T09:22:40;1.70;99.90
23744;DHT22;12052;53.478;10.182;2024-01-15T09:25:08;1.80;99.90
23744;DHT22;12052;53.478;10.182;2024-01-15T09:27:35;1.70;99.90
23744;DHT22;12052;53.478;10.182;2024-01-15T09:30:02;1.80;99.90
23744;DHT22;12052;53.478;10.182;2024-01-15T09:32:27;1.70;99.90
23744;DHT22;12052;53.478;10.182;2024-01-15T09:34:53;1.80;99.90
23744;DHT22;12052;53.478;10.182;2024-01-15T09:37:19;1.80;99.90
23744;DHT22;12052;53.478;10.182;2024-01-15T09:39:44;1.80;99.90
23744;DHT22;12052;53.478;10.182;2024-01-15T09:42:10;1.80;99.90
23744;DHT22;12052;53.478;10.182;2024-01-15T09:44:36;1.80;99.90
23744;DHT22;12052;53.478;10.182;2024-01-15T09:47:04;1.90;99.90
23744;DHT22;12052;53.478;10.182;2024-01-15T09:49:30;1.90;99.90
23744;DHT22;12052;53.478;10.182;2024-01-15T09:51:57;1.90;99.90
23744;DHT22;12052;53.478;10.182;2024-01-15T09:54:23;1.90;99.90
23744;DHT22;12052;53.478;10.182;2024-01-15T09:56:49;1.90;99.90
23744;DHT22;12052;53.478;10.182;2024-01-15T09:59:16;1.90;99.90
23744;DHT22;12052;53.478;10.182;2024-01-15T10:01:46;1.90;99.90
23744;DHT22;12052;53.478;10.182;2024-01-15T10:04:13;2.00;99.90
23744;DHT22;12052;53.478;10.182;2024-01-15T10:06:44;2.00;99.90
23744;DHT22;12052;53.478;10.182;2024-01-15T10:09:13;2.00;99.90
23744;DHT22;12052;53.478;10.182;2024-01-15T10:11:42;2.00;99.90
23744;DHT22;12052;53.478;10.182;2024-01-15T10:14:09;2.00;99.90
23744;DHT22;12052;53.478;10.182;2024-01-15T10:16:40;2.00;99.90
23744;DHT22;12052;53.478;10.182;2024-01-15T10:19:07;1.80;99.90
23744;DHT22;12052;53.478;10.182;2024-01-15T10:21:33;1.40;99.90
23744;DHT22;12052;53.478;10.182;2024-01-15T10:24:02;1.20;99.90
23744;DHT22;12052;53.478;10.182;2024-01-15T10:26:28;1.00;99.90
23744;DHT22;12052;53.478;10.182;2024-01-15T10:28:53;0.80;99.90
23744;DHT22;12052;53.478;10.182;2024-01-15T10:31:19;0.80;99.90
23744;DHT22;12052;53.478;10.182;2024-01-15T10:33:46;0.70;99.90
23744;DHT22;12052;53.478;10.182;2024-01-15T10:36:12;0.70;99.90
23744;DHT22;12052;53.478;10.182;2024-01-15T10:38:37;0.70;99.90
23744;DHT22;12052;53.478;10.182;2024-01-15T10:41:03;0.70;99.90
23744;DHT22;12052;53.478;10.182;2024-01-15T10:43:29;0.70;99.90
23744;DHT22;12052;53.478;10.182;2024-01-15T10:45:55;0.70;99.90
23744;DHT22;12052;53.478;10.182;2024-01-15T10:48:21;0.70;99.90
23744;DHT22;12052;53.478;10.182;2024-01-15T10:50:47;0.80;99.90
23744;DHT22;12052;53.478;10.182;2024-01-15T10:53:15;0.80;99.90
23744;DHT22;12052;53.478;10.182;2024-01-15T10:55:44;0.80;99.90
23744;DHT22;12052;53.478;10.182;2024-01-15T10:58:25;0.90;99.90
23744;DHT22;12052;53.478;10.182;2024-01-15T11:01:29;0.90;99.90
23744;DHT22;12052;53.478;10.182;2024-01-15T11:04:03;0.90;99.90
23744;DHT22;12052;53.478;10.182;2024-01-15T11:06:53;1.00;99.90
23744;DHT22;12052;53.478;10.182;2024-01-15T11:09:28;0.90;99.90
23744;DHT22;12052;53.478;10.182;2024-01-15T11:12:24;0.80;99.90
23744;DHT22;12052;53.478;10.182;2024-01-15T11:18:40;0.50;99.90
23744;DHT22;12052;53.478;10.182;2024-01-15T11:21:29;0.50;99.90
23744;DHT22;12052;53.478;10.182;2024-01-15T11:24:39;0.50;99.90
23744;DHT22;12052;53.478;10.182;2024-01-15T11:28:10;0.40;99.90
23744;DHT22;12052;53.478;10.182;2024-01-15T11:32:07;0.50;99.90
23744;DHT22;12052;53.478;10.182;2024-01-15T11:34:52;0.50;99.90
23744;DHT22;12052;53.478;10.182;2024-01-15T11:38:00;0.50;99.90
23744;DHT22;12052;53.478;10.182;2024-01-15T11:54:08;0.60;99.90
23744;DHT22;12052;53.478;10.182;2024-01-15T11:56:35;0.60;99.90
23744;DHT22;12052;53.478;10.182;2024-01-15T11:59:01;0.60;99.90
23744;DHT22;12052;53.478;10.182;2024-01-15T12:01:27;0.60;99.90
23744;DHT22;12052;53.478;10.182;2024-01-15T12:03:54;0.60;99.90
23744;DHT22;12052;53.478;10.182;2024-01-15T12:06:20;0.60;99.90
23744;DHT22;12052;53.478;10.182;2024-01-15T12:08:46;0.60;99.90
23744;DHT22;12052;53.478;10.182;2024-01-15T12:11:13;0.60;99.90
23744;DHT22;12052;53.478;10.182;2024-01-15T12:13:41;0.60;99.90
23744;DHT22;12052;53.478;10.182;2024-01-15T12:16:06;0.60;99.90
23744;DHT22;12052;53.478;10.182;2024-01-15T12:18:32;0.60;99.90
23744;DHT22;12052;53.478;10.182;2024-01-15T12:20:58;0.60;99.90
23744;DHT22;12052;53.478;10.182;2024-01-15T12:23:24;0.60;99.90
23744;DHT22;12052;53.478;10.182;2024-01-15T12:25:50;0.70;99.90
23744;DHT22;12052;53.478;10.182;2024-01-15T12:28:15;0.60;99.90
23744;DHT22;12052;53.478;10.182;2024-01-15T12:30:41;0.70;99.90
23744;DHT22;12052;53.478;10.182;2024-01-15T12:33:08;0.70;99.90
23744;DHT22;12052;53.478;10.182;2024-01-15T12:35:34;0.70;99.90
23744;DHT22;12052;53.478;10.182;2024-01-15T12:38:01;0.70;99.90
23744;DHT22;12052;53.478;10.182;2024-01-15T12:40:30;0.70;99.90
23744;DHT22;12052;53.478;10.182;2024-01-15T12:42:57;0.70;99.90
23744;DHT22;12052;53.478;10.182;2024-01-15T12:45:23;0.70;99.90
23744;DHT22;12052;53.478;10.182;2024-01-15T12:47:49;0.70;99.90
23744;DHT22;12052;53.478;10.182;2024-01-15T12:50:16;0.60;99.90
23744;DHT22;12052;53.478;10.182;2024-01-15T12:52:42;0.60;99.90
23744;DHT22;12052;53.478;10.182;2024-01-15T12:55:09;0.60;99.90
23744;DHT22;12052;53.478;10.182;2024-01-15T12:57:35;0.60;99.90
23744;DHT22;12052;53.478;10.182;2024-01-15T13:00:02;0.70;99.90
23744;DHT22;12052;53.478;10.182;2024-01-15T13:02:32;0.60;99.90
23744;DHT22;12052;53.478;10.182;2024-01-15T13:04:58;0.70;99.90
23744;DHT22;12052;53.478;10.182;2024-01-15T13:07:25;0.70;99.90
23744;DHT22;12052;53.478;10.182;2024-01-15T13:09:50;0.70;99.90
23744;DHT22;12052;53.478;10.182;2024-01-15T13:12:19;0.60;99.90
23744;DHT22;12052;53.478;10.182;2024-01-15T13:14:45;0.60;99.90
23744;DHT22;12052;53.478;10.182;2024-01-15T13:17:11;0.60;99.90
23744;DHT22;12052;53.478;10.182;2024-01-15T13:19:36;0.60;99.90
23744;DHT22;12052;53.478;10.182;2024-01-15T13:22:04;0.50;99.90
23744;DHT22;12052;53.478;10.182;2024-01-15T13:24:32;0.60;99.90
23744;DHT22;12052;53.478;10.182;2024-01-15T13:26:57;0.60;99.90
23744;DHT22;12052;53.478;10.182;2024-01-15T13:29:23;0.60;99.90
23744;DHT22;12052;53.478;10.182;2024-01-15T13:31:49;0.60;99.90
23744;DHT22;12052;53.478;10.182;2024-01-15T13:34:14;0.60;99.90
23744;DHT22;12052;53.478;10.182;2024-01-15T13:36:40;0.60;99.90
23744;DHT22;12052;53.478;10.182;2024-01-15T13:39:06;0.60;99.90
23744;DHT22;12052;53.478;10.182;2024-01-15T13:41:34;0.60;99.90
23744;DHT22;12052;53.478;10.182;2024-01-15T13:44:00;0.70;99.90
23744;DHT22;12052;53.478;10.182;2024-01-15T13:46:25;0.60;99.90
23744;DHT22;12052;53.478;10.182;2024-01-15T13:48:59;0.60;99.90
23744;DHT22;12052;53.478;10.182;2024-01-15T13:51:24;0.70;99.90
23744;DHT22;12052;53.478;10.182;2024-01-15T13:53:50;0.70;99.90
23744;DHT22;12052;53.478;10.182;2024-01-15T13:56:16;0.70;99.90
23744;DHT22;12052;53.478;10.182;2024-01-15T13:58:42;0.70;99.90
23744;DHT22;12052;53.478;10.182;2024-01-15T14:01:08;0.70;99.90
23744;DHT22;12052;53.478;10.182;2024-01-15T14:03:34;0.70;99.90
23744;DHT22;12052;53.478;10.182;2024-01-15T14:06:00;0.70;99.90
23744;DHT22;12052;53.478;10.182;2024-01-15T14:08:28;0.60;99.90
23744;DHT22;12052;53.478;10.182;2024-01-15T14:10:54;0.60;99.90
23744;DHT22;12052;53.478;10.182;2024-01-15T14:13:21;0.60;99.90
23744;DHT22;12052;53.478;10.182;2024-01-15T14:15:47;0.60;99.90
23744;DHT22;12052;53.478;10.182;2024-01-15T14:18:14;0.60;99.90
23744;DHT22;12052;53.478;10.182;2024-01-15T14:20:39;0.60;99.90
23744;DHT22;12052;53.478;10.182;2024-01-15T14:23:05;0.60;99.90
23744;DHT22;12052;53.478;10.182;2024-01-15T14:25:31;0.60;99.90
23744;DHT22;12052;53.478;10.182;2024-01-15T14:27:56;0.60;99.90
23744;DHT22;12052;53.478;10.182;2024-01-15T14:30:22;0.60;99.90
23744;DHT22;12052;53.478;10.182;2024-01-15T14:32:47;0.60;99.90
23744;DHT22;12052;53.478;10.182;2024-01-15T14:35:13;0.60;99.90
23744;DHT22;12052;53.478;10.182;2024-01-15T14:37:39;0.60;99.90
23744;DHT22;12052;53.478;10.182;2024-01-15T14:40:06;0.50;99.90
23744;DHT22;12052;53.478;10.182;2024-01-15T14:42:34;0.50;99.90
23744;DHT22;12052;53.478;10.182;2024-01-15T14:44:59;0.50;99.90
23744;DHT22;12052;53.478;10.182;2024-01-15T14:47:26;0.50;99.90
23744;DHT22;12052;53.478;10.182;2024-01-15T14:49:52;0.50;99.90
23744;DHT22;12052;53.478;10.182;2024-01-15T14:52:18;0.50;99.90
23744;DHT22;12052;53.478;10.182;2024-01-15T14:54:44;0.50;99.90
23744;DHT22;12052;53.478;10.182;2024-01-15T14:57:09;0.50;99.90
23744;DHT22;12052;53.478;10.182;2024-01-15T14:59:35;0.50;99.90
23744;DHT22;12052;53.478;10.182;2024-01-15T15:02:00;0.50;99.90
23744;DHT22;12052;53.478;10.182;2024-01-15T15:04:26;0.40;99.90
23744;DHT22;12052;53.478;10.182;2024-01-15T15:06:52;0.40;99.90
23744;DHT22;12052;53.478;10.182;2024-01-15T15:09:17;0.40;99.90
23744;DHT22;12052;53.478;10.182;2024-01-15T15:11:43;0.40;99.90
23744;DHT22;12052;53.478;10.182;2024-01-15T15:14:09;0.30;99.90
23744;DHT22;12052;53.478;10.182;2024-01-15T15:16:34;0.30;99.90
23744;DHT22;12052;53.478;10.182;2024-01-15T15:19:00;0.30;99.90
23744;DHT22;12052;53.478;10.182;2024-01-15T15:21:25;0.30;99.90
23744;DHT22;12052;53.478;10.182;2024-01-15T15:23:52;0.30;99.90
23744;DHT22;12052;53.478;10.182;2024-01-15T15:26:17;0.20;99.90
23744;DHT22;12052;53.478;10.182;2024-01-15T15:28:43;0.30;99.90
23744;DHT22;12052;53.478;10.182;2024-01-15T15:31:08;0.20;99.90
23744;DHT22;12052;53.478;10.182;2024-01-15T15:33:36;0.20;99.90
23744;DHT22;12052;53.478;10.182;2024-01-15T15:36:02;0.20;99.90
23744;DHT22;12052;53.478;10.182;2024-01-15T15:38:34;0.10;99.90
23744;DHT22;12052;53.478;10.182;2024-01-15T15:41:00;0.10;99.90
23744;DHT22;12052;53.478;10.182;2024-01-15T15:43:26;0.10;99.90
23744;DHT22;12052;53.478;10.182;2024-01-15T15:45:52;0.10;99.90
23744;DHT22;12052;53.478;10.182;2024-01-15T15:48:17;0.10;99.90
23744;DHT22;12052;53.478;10.182;2024-01-15T15:50:43;0.10;99.90
23744;DHT22;12052;53.478;10.182;2024-01-15T15:53:09;0.00;99.90
23744;DHT22;12052;53.478;10.182;2024-01-15T15:55:35;0.00;99.90
23744;DHT22;12052;53.478;10.182;2024-01-15T15:58:05;0.00;99.90
23744;DHT22;12052;53.478;10.182;2024-01-15T16:00:31;0.00;99.90